createdAt,value
2019-04-30T00:00:21.095Z,0.00
2019-04-30T00:01:20.841Z,0.00
2019-04-30T00:03:17.984Z,0.00
2019-04-30T00:04:15.651Z,0.00
2019-04-30T00:06:07.577Z,0.00
2019-04-30T00:07:10.257Z,0.00
2019-04-30T00:09:00.431Z,0.00
2019-04-30T00:10:00.471Z,0.00
2019-04-30T00:12:10.943Z,0.00
2019-04-30T00:13:14.853Z,0.00
2019-04-30T00:15:06.110Z,0.00
2019-04-30T00:16:05.337Z,0.00
2019-04-30T00:18:01.327Z,0.00
2019-04-30T00:19:00.485Z,0.00
2019-04-30T00:20:50.514Z,0.00
2019-04-30T00:21:56.860Z,0.00
2019-04-30T00:23:43.673Z,0.00
2019-04-30T00:24:46.766Z,0.00
2019-04-30T00:26:39.898Z,0.00
2019-04-30T00:27:36.847Z,0.00
2019-04-30T00:29:31.052Z,0.00
2019-04-30T00:30:30.036Z,0.00
2019-04-30T00:32:23.201Z,0.00
2019-04-30T00:33:25.282Z,0.00
2019-04-30T00:35:19.539Z,0.00
2019-04-30T00:36:17.354Z,0.00
2019-04-30T00:38:09.586Z,0.00
2019-04-30T00:39:13.356Z,0.00
2019-04-30T00:41:06.877Z,0.00
2019-04-30T00:42:02.746Z,0.00
2019-04-30T00:43:56.036Z,0.00
2019-04-30T00:44:59.630Z,0.00
2019-04-30T00:46:49.503Z,0.00
2019-04-30T00:47:49.171Z,0.00
2019-04-30T00:49:42.370Z,0.00
2019-04-30T00:50:42.406Z,0.00
2019-04-30T00:52:52.930Z,0.00
2019-04-30T00:53:52.948Z,0.00
2019-04-30T00:55:48.369Z,0.00
2019-04-30T00:56:46.178Z,0.00
2019-04-30T00:58:39.330Z,0.00
2019-04-30T00:59:39.689Z,0.00
2019-04-30T01:01:32.552Z,0.00
2019-04-30T01:02:32.561Z,0.00
2019-04-30T01:04:28.149Z,0.00
2019-04-30T01:05:27.117Z,0.00
2019-04-30T01:07:18.884Z,0.00
2019-04-30T01:08:21.130Z,0.00
2019-04-30T01:10:12.337Z,0.00
2019-04-30T01:11:12.302Z,0.00
2019-04-30T01:13:08.071Z,0.00
2019-04-30T01:14:05.509Z,0.00
2019-04-30T01:15:58.847Z,0.00
2019-04-30T01:16:59.396Z,0.00
2019-04-30T01:18:51.819Z,0.00
2019-04-30T01:19:54.481Z,0.00
2019-04-30T01:21:47.122Z,0.00
2019-04-30T01:22:44.979Z,0.00
2019-04-30T01:24:38.683Z,0.00
2019-04-30T01:25:38.873Z,0.00
2019-04-30T01:27:31.332Z,0.00
2019-04-30T01:28:31.344Z,0.00
2019-04-30T01:30:24.559Z,0.00
2019-04-30T01:31:24.573Z,0.00
2019-04-30T01:33:19.180Z,0.00
2019-04-30T01:34:19.605Z,0.00
2019-04-30T01:36:13.364Z,0.00
2019-04-30T01:37:10.923Z,0.00
2019-04-30T01:39:04.116Z,0.00
2019-04-30T01:40:10.648Z,0.00
2019-04-30T01:41:58.697Z,0.00
2019-04-30T01:42:59.206Z,0.00
2019-04-30T01:44:53.590Z,0.00
2019-04-30T01:45:50.508Z,0.00
2019-04-30T01:47:43.671Z,0.00
2019-04-30T01:48:47.994Z,0.00
2019-04-30T01:50:38.718Z,0.00
2019-04-30T01:51:38.641Z,0.00
2019-04-30T01:53:30.022Z,0.00
2019-04-30T01:54:30.049Z,0.00
2019-04-30T01:56:23.221Z,0.00
2019-04-30T01:57:23.203Z,0.00
2019-04-30T01:59:16.451Z,0.00
2019-04-30T02:00:16.475Z,0.00
2019-04-30T02:02:09.627Z,0.00
2019-04-30T02:03:11.185Z,0.00
2019-04-30T02:05:02.881Z,0.00
2019-04-30T02:06:02.837Z,0.00
2019-04-30T02:07:56.023Z,0.00
2019-04-30T02:08:56.033Z,0.00
2019-04-30T02:10:51.388Z,0.00
2019-04-30T02:11:49.220Z,0.00
2019-04-30T02:13:42.395Z,0.00
2019-04-30T02:14:42.429Z,0.00
2019-04-30T02:16:35.588Z,0.00
2019-04-30T02:17:35.591Z,0.00
2019-04-30T02:19:31.038Z,0.00
2019-04-30T02:20:28.914Z,0.00
2019-04-30T02:22:21.931Z,0.00
2019-04-30T02:23:21.936Z,0.00
2019-04-30T02:25:15.419Z,0.00
2019-04-30T02:26:15.146Z,0.00
2019-04-30T02:28:08.969Z,0.00
2019-04-30T02:29:09.164Z,0.00
2019-04-30T02:31:01.542Z,0.00
2019-04-30T02:32:01.545Z,0.00
2019-04-30T02:33:54.748Z,0.00
2019-04-30T02:34:54.756Z,0.00
2019-04-30T02:36:49.964Z,0.00
2019-04-30T02:37:50.541Z,0.00
2019-04-30T02:39:41.065Z,0.00
2019-04-30T02:40:42.682Z,0.00
2019-04-30T02:42:34.289Z,0.00
2019-04-30T02:43:34.300Z,0.00
2019-04-30T02:45:29.859Z,0.00
2019-04-30T02:46:31.922Z,0.00
2019-04-30T02:48:20.652Z,0.00
2019-04-30T02:49:20.722Z,0.00
2019-04-30T02:51:13.822Z,0.00
2019-04-30T02:52:13.827Z,0.00
2019-04-30T02:54:09.545Z,0.00
2019-04-30T02:55:09.450Z,0.00
2019-04-30T02:57:15.607Z,0.00
2019-04-30T02:58:15.569Z,0.00
2019-04-30T03:00:09.947Z,0.00
2019-04-30T03:01:10.282Z,0.00
2019-04-30T03:03:02.058Z,0.00
2019-04-30T03:04:01.994Z,0.00
2019-04-30T03:05:55.121Z,0.00
2019-04-30T03:06:55.149Z,0.00
2019-04-30T03:08:51.111Z,0.00
2019-04-30T03:09:49.984Z,0.00
2019-04-30T03:11:41.518Z,0.00
2019-04-30T03:12:41.503Z,0.00
2019-04-30T03:14:34.663Z,0.00
2019-04-30T03:15:34.681Z,0.00
2019-04-30T03:17:29.392Z,0.00
2019-04-30T03:18:30.236Z,0.00
2019-04-30T03:20:34.705Z,4.00
2019-04-30T03:21:21.098Z,0.00
2019-04-30T03:23:14.353Z,4.00
2019-04-30T03:24:14.317Z,4.00
2019-04-30T03:26:09.669Z,4.00
2019-04-30T03:27:09.653Z,4.00
2019-04-30T03:29:23.484Z,4.00
2019-04-30T03:30:21.906Z,4.00
2019-04-30T03:32:13.418Z,4.00
2019-04-30T03:33:12.648Z,8.00
2019-04-30T03:35:04.414Z,8.00
2019-04-30T03:36:04.420Z,8.00
2019-04-30T03:37:59.207Z,12.00
2019-04-30T03:39:00.001Z,12.00
2019-04-30T03:40:50.721Z,16.00
2019-04-30T03:41:50.744Z,16.00
2019-04-30T03:43:44.046Z,16.00
2019-04-30T03:44:44.056Z,20.00
2019-04-30T03:46:39.811Z,20.00
2019-04-30T03:47:40.317Z,20.00
2019-04-30T03:49:31.499Z,28.00
2019-04-30T03:50:48.287Z,24.00
2019-04-30T03:52:23.576Z,28.00
2019-04-30T03:53:23.600Z,32.00
2019-04-30T03:55:16.791Z,36.00
2019-04-30T03:56:22.407Z,36.00
2019-04-30T03:58:10.308Z,40.00
2019-04-30T03:59:10.835Z,44.00
2019-04-30T04:01:03.152Z,48.00
2019-04-30T04:02:03.142Z,52.00
2019-04-30T04:03:56.331Z,56.00
2019-04-30T04:04:56.325Z,56.00
2019-04-30T04:06:49.495Z,64.00
2019-04-30T04:07:52.932Z,68.00
2019-04-30T04:09:42.730Z,76.00
2019-04-30T04:10:42.669Z,80.00
2019-04-30T04:12:35.801Z,88.00
2019-04-30T04:13:35.840Z,92.00
2019-04-30T04:15:29.892Z,100.00
2019-04-30T04:16:32.127Z,108.00
2019-04-30T04:18:22.166Z,120.00
2019-04-30T04:19:22.161Z,124.00
2019-04-30T04:21:16.965Z,128.00
2019-04-30T04:22:15.308Z,136.00
2019-04-30T04:24:10.636Z,140.00
2019-04-30T04:25:12.688Z,144.00
2019-04-30T04:27:01.683Z,144.00
2019-04-30T04:28:01.670Z,152.00
2019-04-30T04:29:54.833Z,176.00
2019-04-30T04:30:54.834Z,180.00
2019-04-30T04:32:50.115Z,188.00
2019-04-30T04:33:49.662Z,200.00
2019-04-30T04:35:41.154Z,208.00
2019-04-30T04:36:43.510Z,208.00
2019-04-30T04:38:34.485Z,232.00
2019-04-30T04:39:34.469Z,244.00
2019-04-30T04:41:29.572Z,260.00
2019-04-30T04:42:30.009Z,272.00
2019-04-30T04:44:21.108Z,312.00
2019-04-30T04:45:21.008Z,312.00
2019-04-30T04:47:16.134Z,304.00
2019-04-30T04:48:14.056Z,312.00
2019-04-30T04:50:10.017Z,320.00
2019-04-30T04:51:10.861Z,316.00
2019-04-30T04:53:00.462Z,312.00
2019-04-30T04:54:03.201Z,312.00
2019-04-30T04:56:12.230Z,308.00
2019-04-30T04:57:17.915Z,312.00
2019-04-30T04:59:05.500Z,316.00
2019-04-30T05:00:07.559Z,324.00
2019-04-30T05:02:16.006Z,340.00
2019-04-30T05:03:16.024Z,352.00
2019-04-30T05:05:09.773Z,368.00
2019-04-30T05:06:11.549Z,376.00
2019-04-30T05:08:02.488Z,388.00
2019-04-30T05:09:02.522Z,396.00
2019-04-30T05:10:55.698Z,404.00
2019-04-30T05:11:55.718Z,408.00
2019-04-30T05:13:49.128Z,384.00
2019-04-30T05:14:48.906Z,392.00
2019-04-30T05:16:59.442Z,392.00
2019-04-30T05:17:59.417Z,384.00
2019-04-30T05:19:52.575Z,384.00
2019-04-30T05:20:52.577Z,388.00
2019-04-30T05:22:45.736Z,396.00
2019-04-30T05:23:45.863Z,400.00
2019-04-30T05:25:39.101Z,396.00
2019-04-30T05:26:38.950Z,396.00
2019-04-30T05:28:32.162Z,404.00
2019-04-30T05:29:32.161Z,412.00
2019-04-30T05:31:25.340Z,412.00
2019-04-30T05:32:25.354Z,408.00
2019-04-30T05:34:18.988Z,416.00
2019-04-30T05:35:18.657Z,420.00
2019-04-30T05:37:30.073Z,444.00
2019-04-30T05:38:31.327Z,448.00
2019-04-30T05:40:42.552Z,464.00
2019-04-30T05:41:41.155Z,460.00
2019-04-30T05:43:34.890Z,516.00
2019-04-30T05:44:34.930Z,516.00
2019-04-30T05:46:29.879Z,544.00
2019-04-30T05:47:29.228Z,564.00
2019-04-30T05:49:39.570Z,552.00
2019-04-30T05:50:39.579Z,544.00
2019-04-30T05:52:32.837Z,520.00
2019-04-30T05:53:32.847Z,504.00
2019-04-30T05:55:26.094Z,480.00
2019-04-30T05:56:26.104Z,480.00
2019-04-30T05:58:19.932Z,480.00
2019-04-30T05:59:20.619Z,476.00
2019-04-30T06:01:12.499Z,436.00
2019-04-30T06:02:12.493Z,420.00
2019-04-30T06:04:05.687Z,416.00
2019-04-30T06:05:05.687Z,420.00
2019-04-30T06:06:58.843Z,420.00
2019-04-30T06:07:59.355Z,432.00
2019-04-30T06:09:52.091Z,448.00
2019-04-30T06:10:52.120Z,460.00
2019-04-30T06:12:45.291Z,472.00
2019-04-30T06:13:45.275Z,476.00
2019-04-30T06:15:39.101Z,472.00
2019-04-30T06:16:39.339Z,460.00
2019-04-30T06:18:31.662Z,452.00
2019-04-30T06:19:31.661Z,428.00
2019-04-30T06:21:42.229Z,436.00
2019-04-30T06:22:42.227Z,420.00
2019-04-30T06:24:35.365Z,408.00
2019-04-30T06:25:52.899Z,400.00
2019-04-30T06:27:29.165Z,392.00
2019-04-30T06:28:29.227Z,388.00
2019-04-30T06:30:21.668Z,372.00
2019-04-30T06:31:31.821Z,368.00
2019-04-30T06:33:14.863Z,360.00
2019-04-30T06:34:14.857Z,360.00
2019-04-30T06:36:08.533Z,384.00
2019-04-30T06:37:09.587Z,392.00
2019-04-30T06:39:01.214Z,408.00
2019-04-30T06:40:01.299Z,408.00
2019-04-30T06:42:04.219Z,412.00
2019-04-30T06:42:54.438Z,416.00
2019-04-30T06:44:49.391Z,424.00
2019-04-30T06:45:48.824Z,432.00
2019-04-30T06:47:40.762Z,492.00
2019-04-30T06:48:41.858Z,512.00
2019-04-30T06:50:33.894Z,620.00
2019-04-30T06:51:33.922Z,616.00
2019-04-30T06:53:29.084Z,644.00
2019-04-30T06:54:28.775Z,648.00
2019-04-30T06:56:20.345Z,700.00
2019-04-30T06:57:20.353Z,712.00
2019-04-30T06:59:13.525Z,712.00
2019-04-30T07:00:13.536Z,716.00
2019-04-30T07:02:21.048Z,748.00
2019-04-30T07:03:21.062Z,756.00
2019-04-30T07:05:14.204Z,736.00
2019-04-30T07:06:14.218Z,720.00
2019-04-30T07:08:11.408Z,688.00
2019-04-30T07:09:08.848Z,680.00
2019-04-30T07:11:07.415Z,672.00
2019-04-30T07:12:00.591Z,632.00
2019-04-30T07:13:53.847Z,576.00
2019-04-30T07:14:53.769Z,560.00
2019-04-30T07:16:46.954Z,504.00
2019-04-30T07:17:49.011Z,480.00
2019-04-30T07:19:53.288Z,808.00
2019-04-30T07:20:40.142Z,712.00
2019-04-30T07:22:40.135Z,828.00
2019-04-30T07:23:33.293Z,812.00
2019-04-30T07:25:26.465Z,788.00
2019-04-30T07:26:28.740Z,804.00
2019-04-30T07:28:19.671Z,832.00
2019-04-30T07:29:19.759Z,816.00
2019-04-30T07:31:30.209Z,820.00
2019-04-30T07:32:30.211Z,832.00
2019-04-30T07:34:23.419Z,844.00
2019-04-30T07:35:23.401Z,848.00
2019-04-30T07:37:23.906Z,852.00
2019-04-30T07:38:16.603Z,860.00
2019-04-30T07:40:09.776Z,856.00
2019-04-30T07:41:09.795Z,856.00
2019-04-30T07:43:02.972Z,884.00
2019-04-30T07:44:02.991Z,900.00
2019-04-30T07:45:56.137Z,892.00
2019-04-30T07:46:56.178Z,912.00
2019-04-30T07:48:50.227Z,928.00
2019-04-30T07:49:54.920Z,916.00
2019-04-30T07:51:42.939Z,900.00
2019-04-30T07:53:01.008Z,884.00
2019-04-30T07:54:35.656Z,900.00
2019-04-30T07:55:35.672Z,920.00
2019-04-30T07:57:29.201Z,916.00
2019-04-30T07:58:29.896Z,940.00
2019-04-30T08:00:21.985Z,964.00
2019-04-30T08:01:22.005Z,976.00
2019-04-30T08:03:15.360Z,972.00
2019-04-30T08:04:15.219Z,988.00
2019-04-30T08:06:10.129Z,1028.00
2019-04-30T08:07:09.789Z,1064.00
2019-04-30T08:09:02.003Z,1064.00
2019-04-30T08:10:01.627Z,1072.00
2019-04-30T08:12:21.619Z,1128.00
2019-04-30T08:13:15.275Z,1156.00
2019-04-30T08:15:23.173Z,1236.00
2019-04-30T08:16:22.865Z,1260.00
2019-04-30T08:18:16.022Z,1296.00
2019-04-30T08:19:16.028Z,1292.00
2019-04-30T08:21:09.556Z,1272.00
2019-04-30T08:22:09.639Z,1196.00
2019-04-30T08:24:02.485Z,1224.00
2019-04-30T08:25:02.489Z,1324.00
2019-04-30T08:26:55.713Z,1304.00
2019-04-30T08:27:55.704Z,1280.00
2019-04-30T08:29:49.939Z,1284.00
2019-04-30T08:30:49.040Z,1220.00
2019-04-30T08:32:42.066Z,1276.00
2019-04-30T08:33:42.080Z,1264.00
2019-04-30T08:35:35.336Z,1176.00
2019-04-30T08:36:35.334Z,1184.00
2019-04-30T08:38:45.868Z,1324.00
2019-04-30T08:39:45.860Z,1348.00
2019-04-30T08:41:39.302Z,1400.00
2019-04-30T08:42:40.345Z,1488.00
2019-04-30T08:44:32.186Z,1468.00
2019-04-30T08:45:34.728Z,1520.00
2019-04-30T08:47:25.347Z,1580.00
2019-04-30T08:48:25.366Z,1536.00
2019-04-30T08:50:36.877Z,1232.00
2019-04-30T08:51:38.876Z,1196.00
2019-04-30T08:53:33.399Z,1264.00
2019-04-30T08:54:30.090Z,1132.00
2019-04-30T08:56:23.262Z,1128.00
2019-04-30T08:57:23.262Z,1132.00
2019-04-30T08:59:16.452Z,1160.00
2019-04-30T09:00:16.478Z,1172.00
2019-04-30T09:02:23.948Z,1544.00
2019-04-30T09:03:23.968Z,1528.00
2019-04-30T09:05:18.524Z,1784.00
2019-04-30T09:06:17.140Z,1808.00
2019-04-30T09:08:24.632Z,1360.00
2019-04-30T09:09:24.625Z,1596.00
2019-04-30T09:11:25.198Z,1260.00
2019-04-30T09:12:19.597Z,2292.00
2019-04-30T09:14:11.098Z,1300.00
2019-04-30T09:15:11.068Z,1332.00
2019-04-30T09:17:04.249Z,1564.00
2019-04-30T09:18:08.244Z,1276.00
2019-04-30T09:19:58.844Z,1352.00
2019-04-30T09:21:04.142Z,1388.00
2019-04-30T09:22:50.637Z,1364.00
2019-04-30T09:23:52.682Z,1440.00
2019-04-30T09:25:43.755Z,1716.00
2019-04-30T09:26:43.761Z,1924.00
2019-04-30T09:28:36.954Z,2744.00
2019-04-30T09:29:36.968Z,2800.00
2019-04-30T09:31:30.138Z,3328.00
2019-04-30T09:32:30.133Z,3300.00
2019-04-30T09:34:23.274Z,3416.00
2019-04-30T09:35:23.311Z,3396.00
2019-04-30T09:37:18.512Z,4340.00
2019-04-30T09:38:16.483Z,2216.00
2019-04-30T09:40:16.151Z,1564.00
2019-04-30T09:41:09.647Z,1600.00
2019-04-30T09:43:18.792Z,1688.00
2019-04-30T09:44:19.469Z,1624.00
2019-04-30T09:46:27.172Z,1976.00
2019-04-30T09:47:25.761Z,4476.00
2019-04-30T09:49:19.452Z,2004.00
2019-04-30T09:50:18.941Z,3136.00
2019-04-30T09:52:12.380Z,1860.00
2019-04-30T09:53:12.203Z,1676.00
2019-04-30T09:55:05.350Z,1616.00
2019-04-30T09:56:05.298Z,2232.00
2019-04-30T09:58:18.264Z,8564.00
2019-04-30T09:59:15.771Z,7544.00
2019-04-30T10:01:09.407Z,6660.00
2019-04-30T10:02:09.296Z,6572.00
2019-04-30T10:04:20.654Z,9472.00
2019-04-30T10:05:20.302Z,12216.00
2019-04-30T10:07:12.676Z,12780.00
2019-04-30T10:08:12.684Z,13664.00
2019-04-30T10:10:06.645Z,16064.00
2019-04-30T10:11:05.845Z,16608.00
2019-04-30T10:13:16.403Z,17184.00
2019-04-30T10:14:16.415Z,17664.00
2019-04-30T10:16:09.950Z,18080.00
2019-04-30T10:17:09.662Z,18208.00
2019-04-30T10:19:02.859Z,18400.00
2019-04-30T10:20:02.857Z,19104.00
2019-04-30T10:21:56.048Z,18624.00
2019-04-30T10:22:56.073Z,18816.00
2019-04-30T10:24:49.500Z,20064.00
2019-04-30T10:25:49.284Z,19264.00
2019-04-30T10:27:42.453Z,19168.00
2019-04-30T10:28:42.454Z,20192.00
2019-04-30T10:30:35.648Z,20160.00
2019-04-30T10:31:35.668Z,20928.00
2019-04-30T10:33:28.880Z,21376.00
2019-04-30T10:34:28.880Z,21888.00
2019-04-30T10:36:22.083Z,25184.00
2019-04-30T10:37:22.082Z,24256.00
2019-04-30T10:39:15.284Z,25120.00
2019-04-30T10:40:15.275Z,26336.00
2019-04-30T10:42:08.438Z,26624.00
2019-04-30T10:43:08.996Z,27392.00
2019-04-30T10:45:01.655Z,30112.00
2019-04-30T10:46:01.673Z,28864.00
2019-04-30T10:47:54.926Z,26240.00
2019-04-30T10:48:54.959Z,28000.00
2019-04-30T10:50:49.223Z,29152.00
2019-04-30T10:51:48.202Z,30848.00
2019-04-30T10:53:41.442Z,32896.00
2019-04-30T10:54:41.471Z,33056.00
2019-04-30T10:56:34.708Z,33248.00
2019-04-30T10:57:34.738Z,33664.00
2019-04-30T10:59:27.945Z,28320.00
2019-04-30T11:00:28.656Z,29504.00
2019-04-30T11:02:21.141Z,33920.00
2019-04-30T11:03:23.094Z,34624.00
2019-04-30T11:05:14.398Z,35904.00
2019-04-30T11:06:14.417Z,33664.00
2019-04-30T11:08:07.920Z,35648.00
2019-04-30T11:09:07.636Z,38816.00
2019-04-30T11:11:00.857Z,32000.00
2019-04-30T11:12:03.037Z,35712.00
2019-04-30T11:13:54.051Z,41888.00
2019-04-30T11:14:54.066Z,44192.00
2019-04-30T11:16:49.076Z,40032.00
2019-04-30T11:17:49.481Z,42656.00
2019-04-30T11:19:40.693Z,40064.00
2019-04-30T11:20:40.637Z,44064.00
2019-04-30T11:22:33.996Z,44096.00
2019-04-30T11:23:33.889Z,45760.00
2019-04-30T11:25:27.749Z,44000.00
2019-04-30T11:26:31.132Z,44192.00
2019-04-30T11:28:20.760Z,39328.00
2019-04-30T11:29:22.926Z,38496.00
2019-04-30T11:31:13.565Z,14304.00
2019-04-30T11:32:13.628Z,1924.00
2019-04-30T11:34:06.590Z,1192.00
2019-04-30T11:35:06.612Z,1116.00
2019-04-30T11:36:59.807Z,1056.00
2019-04-30T11:37:59.831Z,1040.00
2019-04-30T11:39:53.048Z,1004.00
2019-04-30T11:40:53.060Z,984.00
2019-04-30T11:42:46.241Z,956.00
2019-04-30T11:43:46.254Z,940.00
2019-04-30T11:45:39.471Z,920.00
2019-04-30T11:46:39.489Z,904.00
2019-04-30T11:48:32.699Z,876.00
2019-04-30T11:49:32.706Z,860.00
2019-04-30T11:51:27.046Z,844.00
2019-04-30T11:52:25.933Z,828.00
2019-04-30T11:54:19.109Z,808.00
2019-04-30T11:55:19.384Z,796.00
2019-04-30T11:57:12.331Z,768.00
2019-04-30T11:58:21.348Z,756.00
2019-04-30T12:00:05.649Z,736.00
2019-04-30T12:01:05.542Z,728.00
2019-04-30T12:02:59.333Z,712.00
2019-04-30T12:03:59.802Z,696.00
2019-04-30T12:05:51.954Z,664.00
2019-04-30T12:06:51.973Z,656.00
2019-04-30T12:08:45.164Z,640.00
2019-04-30T12:09:45.178Z,636.00
2019-04-30T12:11:38.380Z,620.00
2019-04-30T12:12:38.849Z,620.00
2019-04-30T12:14:31.587Z,628.00
2019-04-30T12:15:31.598Z,648.00
2019-04-30T12:17:24.782Z,688.00
2019-04-30T12:18:24.807Z,704.00
2019-04-30T12:20:29.696Z,700.00
2019-04-30T12:21:29.699Z,688.00
2019-04-30T12:23:22.874Z,648.00
2019-04-30T12:24:22.909Z,636.00
2019-04-30T12:26:16.102Z,600.00
2019-04-30T12:27:16.118Z,592.00
2019-04-30T12:29:11.224Z,576.00
2019-04-30T12:30:09.297Z,564.00
2019-04-30T12:32:02.485Z,560.00
2019-04-30T12:33:02.482Z,560.00
2019-04-30T12:34:55.696Z,548.00
2019-04-30T12:35:55.703Z,548.00
2019-04-30T12:37:52.073Z,544.00
2019-04-30T12:38:48.874Z,544.00
2019-04-30T12:40:42.125Z,544.00
2019-04-30T12:41:42.142Z,552.00
2019-04-30T12:43:35.299Z,564.00
2019-04-30T12:44:35.346Z,572.00
2019-04-30T12:46:43.886Z,576.00
2019-04-30T12:47:43.890Z,568.00
2019-04-30T12:49:37.052Z,556.00
2019-04-30T12:50:39.100Z,544.00
2019-04-30T12:52:30.241Z,548.00
2019-04-30T12:53:30.244Z,556.00
2019-04-30T12:55:23.487Z,572.00
2019-04-30T12:56:27.122Z,572.00
2019-04-30T12:58:16.746Z,580.00
2019-04-30T12:59:16.746Z,584.00
2019-04-30T13:01:09.923Z,600.00
2019-04-30T13:02:09.931Z,608.00
2019-04-30T13:04:14.800Z,624.00
2019-04-30T13:05:14.809Z,628.00
2019-04-30T13:07:10.240Z,640.00
2019-04-30T13:08:09.787Z,640.00
2019-04-30T13:10:02.492Z,644.00
2019-04-30T13:11:01.591Z,644.00
2019-04-30T13:12:54.869Z,628.00
2019-04-30T13:13:54.975Z,636.00
2019-04-30T13:15:47.669Z,632.00
2019-04-30T13:16:49.043Z,644.00
2019-04-30T13:18:40.847Z,628.00
2019-04-30T13:19:40.883Z,616.00
2019-04-30T13:21:34.110Z,592.00
2019-04-30T13:22:34.112Z,588.00
2019-04-30T13:24:31.035Z,608.00
2019-04-30T13:25:35.157Z,624.00
2019-04-30T13:27:22.575Z,632.00
2019-04-30T13:28:21.571Z,632.00
2019-04-30T13:30:14.798Z,624.00
2019-04-30T13:31:14.812Z,612.00
2019-04-30T13:33:09.452Z,604.00
2019-04-30T13:34:08.516Z,584.00
2019-04-30T13:36:01.283Z,588.00
2019-04-30T13:37:01.317Z,604.00
2019-04-30T13:38:54.453Z,628.00
2019-04-30T13:39:54.471Z,636.00
2019-04-30T13:41:50.709Z,652.00
2019-04-30T13:42:48.801Z,644.00
2019-04-30T13:44:40.867Z,616.00
2019-04-30T13:45:40.875Z,580.00
2019-04-30T13:47:34.074Z,520.00
2019-04-30T13:48:34.070Z,500.00
2019-04-30T13:50:29.094Z,476.00
2019-04-30T13:51:27.262Z,480.00
2019-04-30T13:53:20.504Z,464.00
2019-04-30T13:54:20.514Z,452.00
2019-04-30T13:56:13.754Z,432.00
2019-04-30T13:57:13.752Z,416.00
2019-04-30T13:59:06.948Z,420.00
2019-04-30T14:00:08.592Z,440.00
2019-04-30T14:02:00.148Z,448.00
2019-04-30T14:03:00.900Z,472.00
2019-04-30T14:04:53.356Z,540.00
2019-04-30T14:05:53.337Z,580.00
2019-04-30T14:07:46.500Z,664.00
2019-04-30T14:08:46.530Z,684.00
2019-04-30T14:10:39.750Z,716.00
2019-04-30T14:11:39.762Z,728.00
2019-04-30T14:13:32.918Z,712.00
2019-04-30T14:14:32.926Z,696.00
2019-04-30T14:16:26.116Z,704.00
2019-04-30T14:17:26.115Z,720.00
2019-04-30T14:19:19.627Z,760.00
2019-04-30T14:20:19.343Z,784.00
2019-04-30T14:22:12.519Z,812.00
2019-04-30T14:23:12.546Z,816.00
2019-04-30T14:25:05.757Z,812.00
2019-04-30T14:26:05.789Z,796.00
2019-04-30T14:27:59.346Z,784.00
2019-04-30T14:28:58.961Z,800.00
2019-04-30T14:30:52.156Z,844.00
2019-04-30T14:31:52.160Z,876.00
2019-04-30T14:33:45.363Z,884.00
2019-04-30T14:34:45.381Z,880.00
2019-04-30T14:36:39.180Z,876.00
2019-04-30T14:37:38.995Z,860.00
2019-04-30T14:39:31.988Z,852.00
2019-04-30T14:40:32.288Z,844.00
2019-04-30T14:42:25.819Z,852.00
2019-04-30T14:43:25.498Z,860.00
2019-04-30T14:45:18.593Z,820.00
2019-04-30T14:46:20.691Z,796.00
2019-04-30T14:48:12.048Z,772.00
2019-04-30T14:49:14.773Z,764.00
2019-04-30T14:51:04.607Z,724.00
2019-04-30T14:52:04.645Z,704.00
2019-04-30T14:53:58.872Z,752.00
2019-04-30T14:54:58.796Z,768.00
2019-04-30T14:56:51.021Z,784.00
2019-04-30T14:57:51.336Z,800.00
2019-04-30T14:59:44.182Z,800.00
2019-04-30T15:00:44.202Z,808.00
2019-04-30T15:02:37.394Z,772.00
2019-04-30T15:03:39.372Z,760.00
2019-04-30T15:05:39.141Z,728.00
2019-04-30T15:06:30.735Z,704.00
2019-04-30T15:08:24.019Z,676.00
2019-04-30T15:09:24.020Z,652.00
2019-04-30T15:11:18.986Z,612.00
2019-04-30T15:12:17.243Z,604.00
2019-04-30T15:14:10.393Z,584.00
2019-04-30T15:15:10.421Z,572.00
2019-04-30T15:17:03.575Z,552.00
2019-04-30T15:18:03.608Z,548.00
2019-04-30T15:19:58.630Z,612.00
2019-04-30T15:20:56.774Z,620.00
2019-04-30T15:22:49.951Z,548.00
2019-04-30T15:23:58.590Z,596.00
2019-04-30T15:25:43.209Z,1120.00
2019-04-30T15:26:43.207Z,1568.00
2019-04-30T15:28:36.377Z,1016.00
2019-04-30T15:29:36.386Z,788.00
2019-04-30T15:31:29.845Z,512.00
2019-04-30T15:32:29.640Z,468.00
2019-04-30T15:34:22.837Z,436.00
2019-04-30T15:35:22.844Z,444.00
2019-04-30T15:37:21.743Z,464.00
2019-04-30T15:38:16.058Z,488.00
2019-04-30T15:40:09.209Z,472.00
2019-04-30T15:41:09.218Z,468.00
2019-04-30T15:43:02.530Z,452.00
2019-04-30T15:44:02.410Z,436.00
2019-04-30T15:45:57.298Z,400.00
2019-04-30T15:46:55.846Z,368.00
2019-04-30T15:48:48.950Z,304.00
2019-04-30T15:49:48.963Z,280.00
2019-04-30T15:51:42.164Z,304.00
2019-04-30T15:52:42.159Z,360.00
2019-04-30T15:54:35.350Z,424.00
2019-04-30T15:55:35.364Z,440.00
2019-04-30T15:57:29.546Z,464.00
2019-04-30T15:58:28.956Z,532.00
2019-04-30T16:00:21.731Z,1064.00
2019-04-30T16:01:21.750Z,784.00
2019-04-30T16:03:14.946Z,500.00
2019-04-30T16:04:14.956Z,576.00
2019-04-30T16:06:08.349Z,660.00
2019-04-30T16:07:08.544Z,684.00
2019-04-30T16:09:01.372Z,628.00
2019-04-30T16:10:01.371Z,528.00
2019-04-30T16:11:54.537Z,440.00
2019-04-30T16:12:54.532Z,452.00
2019-04-30T16:14:47.718Z,428.00
2019-04-30T16:15:49.187Z,412.00
2019-04-30T16:17:40.936Z,376.00
2019-04-30T16:18:40.955Z,340.00
2019-04-30T16:20:34.114Z,300.00
2019-04-30T16:21:34.137Z,276.00
2019-04-30T16:23:27.324Z,252.00
2019-04-30T16:24:28.700Z,240.00
2019-04-30T16:26:20.549Z,220.00
2019-04-30T16:27:20.562Z,224.00
2019-04-30T16:29:13.745Z,200.00
2019-04-30T16:30:13.742Z,196.00
2019-04-30T16:32:09.131Z,200.00
2019-04-30T16:33:06.950Z,200.00
2019-04-30T16:35:00.159Z,264.00
2019-04-30T16:37:53.381Z,192.00
2019-04-30T16:38:53.375Z,176.00
2019-04-30T16:40:48.404Z,172.00
2019-04-30T16:41:46.605Z,168.00
2019-04-30T16:43:39.754Z,160.00
2019-04-30T16:44:39.762Z,156.00
2019-04-30T16:46:32.911Z,152.00
2019-04-30T16:47:32.931Z,152.00
2019-04-30T16:49:26.156Z,148.00
2019-04-30T16:50:26.235Z,148.00
2019-04-30T16:52:19.346Z,140.00
2019-04-30T16:53:19.354Z,140.00
2019-04-30T16:55:12.529Z,140.00
2019-04-30T16:56:12.553Z,136.00
2019-04-30T16:58:05.765Z,132.00
2019-04-30T16:59:05.753Z,132.00
2019-04-30T17:00:59.391Z,128.00
2019-04-30T17:02:00.478Z,124.00
2019-04-30T17:03:52.111Z,124.00
2019-04-30T17:04:52.131Z,124.00
2019-04-30T17:06:45.376Z,116.00
2019-04-30T17:07:45.386Z,116.00
2019-04-30T17:09:52.876Z,116.00
2019-04-30T17:10:52.897Z,108.00
2019-04-30T17:12:46.610Z,108.00
2019-04-30T17:13:46.089Z,108.00
2019-04-30T17:15:53.649Z,104.00
2019-04-30T17:16:53.637Z,100.00
2019-04-30T17:18:49.259Z,100.00
2019-04-30T17:19:46.854Z,100.00
2019-04-30T17:21:40.017Z,100.00
2019-04-30T17:22:40.036Z,96.00
2019-04-30T17:24:33.304Z,96.00
2019-04-30T17:25:33.226Z,96.00
2019-04-30T17:27:26.373Z,92.00
2019-04-30T17:28:28.482Z,88.00
2019-04-30T17:30:19.670Z,84.00
2019-04-30T17:31:19.641Z,84.00
2019-04-30T17:33:12.880Z,84.00
2019-04-30T17:34:12.886Z,84.00
2019-04-30T17:36:06.058Z,80.00
2019-04-30T17:37:06.074Z,80.00
2019-04-30T17:38:59.222Z,76.00
2019-04-30T17:39:59.236Z,76.00
2019-04-30T17:41:52.401Z,72.00
2019-04-30T17:42:52.417Z,76.00
2019-04-30T17:44:56.142Z,68.00
2019-04-30T17:45:45.626Z,68.00
2019-04-30T17:47:38.813Z,64.00
2019-04-30T17:48:39.401Z,64.00
2019-04-30T17:50:31.989Z,60.00
2019-04-30T17:51:31.996Z,64.00
2019-04-30T17:53:25.207Z,56.00
2019-04-30T17:54:25.235Z,56.00
2019-04-30T17:56:18.447Z,52.00
2019-04-30T17:59:11.645Z,48.00
2019-04-30T18:00:18.844Z,48.00
2019-04-30T18:02:04.916Z,44.00
2019-04-30T18:03:04.926Z,44.00
2019-04-30T18:04:58.134Z,44.00
2019-04-30T18:05:59.227Z,36.00
2019-04-30T18:07:51.365Z,36.00
2019-04-30T18:08:51.326Z,36.00
2019-04-30T18:10:44.569Z,32.00
2019-04-30T18:11:44.586Z,28.00
2019-04-30T18:13:37.761Z,28.00
2019-04-30T18:14:39.533Z,28.00
2019-04-30T18:16:31.007Z,24.00
2019-04-30T18:17:30.992Z,24.00